sensor_id;sensor_type;location;lat;lon;timestamp;P1;durP1;ratioP1;P2;durP2;ratioP2
13477;SDS011;12598;62.382;17.344;2024-03-22T00:00:00;0.73;;;0.30;;
13477;SDS011;12598;62.382;17.344;2024-03-22T00:01:01;1.20;;;0.60;;
13477;SDS011;12598;62.382;17.344;2024-03-22T00:02:02;0.60;;;0.47;;
13477;SDS011;12598;62.382;17.344;2024-03-22T00:03:03;0.70;;;0.52;;
13477;SDS011;12598;62.382;17.344;2024-03-22T00:04:05;1.40;;;0.47;;
13477;SDS011;12598;62.382;17.344;2024-03-22T00:05:05;1.15;;;0.57;;
13477;SDS011;12598;62.382;17.344;2024-03-22T00:06:07;1.42;;;0.60;;
13477;SDS011;12598;62.382;17.344;2024-03-22T00:07:07;0.77;;;0.50;;
13477;SDS011;12598;62.382;17.344;2024-03-22T00:08:08;1.65;;;0.70;;
13477;SDS011;12598;62.382;17.344;2024-03-22T00:09:10;0.60;;;0.40;;
13477;SDS011;12598;62.382;17.344;2024-03-22T00:10:11;1.30;;;0.55;;
13477;SDS011;12598;62.382;17.344;2024-03-22T00:11:12;1.70;;;0.70;;
13477;SDS011;12598;62.382;17.344;2024-03-22T00:12:12;1.08;;;0.50;;
13477;SDS011;12598;62.382;17.344;2024-03-22T00:13:13;1.30;;;0.73;;
13477;SDS011;12598;62.382;17.344;2024-03-22T00:14:14;0.55;;;0.47;;
13477;SDS011;12598;62.382;17.344;2024-03-22T00:15:15;1.65;;;0.55;;
13477;SDS011;12598;62.382;17.344;2024-03-22T00:16:16;1.13;;;0.50;;
13477;SDS011;12598;62.382;17.344;2024-03-22T00:17:17;3.20;;;0.75;;
13477;SDS011;12598;62.382;17.344;2024-03-22T00:18:18;1.50;;;0.60;;
13477;SDS011;12598;62.382;17.344;2024-03-22T00:19:19;1.23;;;0.60;;
13477;SDS011;12598;62.382;17.344;2024-03-22T00:20:20;0.60;;;0.50;;
13477;SDS011;12598;62.382;17.344;2024-03-22T00:21:21;1.48;;;0.50;;
13477;SDS011;12598;62.382;17.344;2024-03-22T00:22:23;0.43;;;0.30;;
13477;SDS011;12598;62.382;17.344;2024-03-22T00:23:24;0.68;;;0.30;;
13477;SDS011;12598;62.382;17.344;2024-03-22T00:24:25;0.90;;;0.60;;
13477;SDS011;12598;62.382;17.344;2024-03-22T00:25:25;1.25;;;0.63;;
13477;SDS011;12598;62.382;17.344;2024-03-22T00:26:27;1.73;;;0.30;;
13477;SDS011;12598;62.382;17.344;2024-03-22T00:27:28;0.93;;;0.40;;
13477;SDS011;12598;62.382;17.344;2024-03-22T00:28:29;0.75;;;0.40;;
13477;SDS011;12598;62.382;17.344;2024-03-22T00:29:30;0.73;;;0.47;;
13477;SDS011;12598;62.382;17.344;2024-03-22T00:30:31;1.25;;;0.50;;
13477;SDS011;12598;62.382;17.344;2024-03-22T00:31:32;0.60;;;0.40;;
13477;SDS011;12598;62.382;17.344;2024-03-22T00:32:32;0.65;;;0.40;;
13477;SDS011;12598;62.382;17.344;2024-03-22T00:33:33;1.08;;;0.55;;
13477;SDS011;12598;62.382;17.344;2024-03-22T00:34:34;0.80;;;0.40;;
13477;SDS011;12598;62.382;17.344;2024-03-22T00:35:35;1.05;;;0.70;;
13477;SDS011;12598;62.382;17.344;2024-03-22T00:36:36;1.33;;;0.57;;
13477;SDS011;12598;62.382;17.344;2024-03-22T00:37:37;0.98;;;0.52;;
13477;SDS011;12598;62.382;17.344;2024-03-22T00:38:38;1.90;;;0.68;;
13477;SDS011;12598;62.382;17.344;2024-03-22T00:39:39;1.30;;;0.90;;
13477;SDS011;12598;62.382;17.344;2024-03-22T00:40:39;2.63;;;1.02;;
13477;SDS011;12598;62.382;17.344;2024-03-22T00:41:40;2.42;;;0.85;;
13477;SDS011;12598;62.382;17.344;2024-03-22T00:42:41;3.88;;;1.20;;
13477;SDS011;12598;62.382;17.344;2024-03-22T00:43:42;1.35;;;0.80;;
13477;SDS011;12598;62.382;17.344;2024-03-22T00:44:43;3.97;;;1.23;;
13477;SDS011;12598;62.382;17.344;2024-03-22T00:45:44;1.02;;;0.75;;
13477;SDS011;12598;62.382;17.344;2024-03-22T00:46:45;1.55;;;0.73;;
13477;SDS011;12598;62.382;17.344;2024-03-22T00:47:46;3.25;;;1.00;;
13477;SDS011;12598;62.382;17.344;2024-03-22T00:48:46;1.15;;;0.80;;
13477;SDS011;12598;62.382;17.344;2024-03-22T00:49:47;1.85;;;1.05;;
13477;SDS011;12598;62.382;17.344;2024-03-22T00:50:48;2.55;;;1.00;;
13477;SDS011;12598;62.382;17.344;2024-03-22T00:51:49;2.25;;;1.05;;
13477;SDS011;12598;62.382;17.344;2024-03-22T00:52:50;1.80;;;0.95;;
13477;SDS011;12598;62.382;17.344;2024-03-22T00:53:51;1.67;;;0.75;;
13477;SDS011;12598;62.382;17.344;2024-03-22T00:54:52;2.08;;;1.00;;
13477;SDS011;12598;62.382;17.344;2024-03-22T00:55:53;2.38;;;0.93;;
13477;SDS011;12598;62.382;17.344;2024-03-22T00:56:56;1.85;;;0.73;;
13477;SDS011;12598;62.382;17.344;2024-03-22T00:57:57;1.52;;;0.90;;
13477;SDS011;12598;62.382;17.344;2024-03-22T00:58:58;1.95;;;0.80;;
13477;SDS011;12598;62.382;17.344;2024-03-22T00:59:59;1.45;;;0.70;;
13477;SDS011;12598;62.382;17.344;2024-03-22T01:00:59;1.48;;;0.70;;
13477;SDS011;12598;62.382;17.344;2024-03-22T01:02:00;2.58;;;0.75;;
13477;SDS011;12598;62.382;17.344;2024-03-22T01:03:01;1.77;;;0.75;;
13477;SDS011;12598;62.382;17.344;2024-03-22T01:04:03;1.83;;;0.70;;
13477;SDS011;12598;62.382;17.344;2024-03-22T01:05:04;1.17;;;0.70;;
13477;SDS011;12598;62.382;17.344;2024-03-22T01:06:05;0.93;;;0.50;;
13477;SDS011;12598;62.382;17.344;2024-03-22T01:07:08;2.03;;;0.80;;
13477;SDS011;12598;62.382;17.344;2024-03-22T01:08:08;1.35;;;0.60;;
13477;SDS011;12598;62.382;17.344;2024-03-22T01:09:09;1.13;;;0.73;;
13477;SDS011;12598;62.382;17.344;2024-03-22T01:10:10;0.98;;;0.60;;
13477;SDS011;12598;62.382;17.344;2024-03-22T01:11:12;0.82;;;0.60;;
13477;SDS011;12598;62.382;17.344;2024-03-22T01:12:13;0.82;;;0.50;;
13477;SDS011;12598;62.382;17.344;2024-03-22T01:13:14;0.47;;;0.35;;
13477;SDS011;12598;62.382;17.344;2024-03-22T01:14:15;1.52;;;0.57;;
13477;SDS011;12598;62.382;17.344;2024-03-22T01:15:16;0.98;;;0.50;;
13477;SDS011;12598;62.382;17.344;2024-03-22T01:16:17;1.92;;;0.50;;
13477;SDS011;12598;62.382;17.344;2024-03-22T01:17:18;0.85;;;0.50;;
13477;SDS011;12598;62.382;17.344;2024-03-22T01:18:18;1.42;;;0.70;;
13477;SDS011;12598;62.382;17.344;2024-03-22T01:19:19;0.82;;;0.70;;
13477;SDS011;12598;62.382;17.344;2024-03-22T01:20:22;0.93;;;0.47;;
13477;SDS011;12598;62.382;17.344;2024-03-22T01:21:22;0.60;;;0.35;;
13477;SDS011;12598;62.382;17.344;2024-03-22T01:22:25;0.90;;;0.50;;
13477;SDS011;12598;62.382;17.344;2024-03-22T01:23:26;0.82;;;0.50;;
13477;SDS011;12598;62.382;17.344;2024-03-22T01:24:27;0.80;;;0.50;;
13477;SDS011;12598;62.382;17.344;2024-03-22T01:25:28;0.98;;;0.40;;
13477;SDS011;12598;62.382;17.344;2024-03-22T01:26:29;0.70;;;0.40;;
13477;SDS011;12598;62.382;17.344;2024-03-22T01:27:30;2.05;;;0.63;;
13477;SDS011;12598;62.382;17.344;2024-03-22T01:28:31;0.70;;;0.45;;
13477;SDS011;12598;62.382;17.344;2024-03-22T01:29:31;1.40;;;0.52;;
13477;SDS011;12598;62.382;17.344;2024-03-22T01:30:32;0.93;;;0.40;;
13477;SDS011;12598;62.382;17.344;2024-03-22T01:31:34;0.70;;;0.50;;
13477;SDS011;12598;62.382;17.344;2024-03-22T01:32:36;0.98;;;0.40;;
13477;SDS011;12598;62.382;17.344;2024-03-22T01:33:37;1.10;;;0.47;;
13477;SDS011;12598;62.382;17.344;2024-03-22T01:34:38;0.95;;;0.40;;
13477;SDS011;12598;62.382;17.344;2024-03-22T01:35:39;1.00;;;0.60;;
13477;SDS011;12598;62.382;17.344;2024-03-22T01:36:40;0.40;;;0.30;;
13477;SDS011;12598;62.382;17.344;2024-03-22T01:37:41;0.70;;;0.50;;
13477;SDS011;12598;62.382;17.344;2024-03-22T01:38:42;0.80;;;0.57;;
13477;SDS011;12598;62.382;17.344;2024-03-22T01:39:43;1.13;;;0.45;;
13477;SDS011;12598;62.382;17.344;2024-03-22T01:40:44;0.93;;;0.40;;
13477;SDS011;12598;62.382;17.344;2024-03-22T01:41:45;1.15;;;0.52;;
13477;SDS011;12598;62.382;17.344;2024-03-22T01:42:46;0.70;;;0.40;;
13477;SDS011;12598;62.382;17.344;2024-03-22T01:43:47;0.98;;;0.50;;
13477;SDS011;12598;62.382;17.344;2024-03-22T01:44:48;0.73;;;0.50;;
13477;SDS011;12598;62.382;17.344;2024-03-22T01:45:50;1.40;;;0.60;;
13477;SDS011;12598;62.382;17.344;2024-03-22T01:46:51;0.88;;;0.40;;
13477;SDS011;12598;62.382;17.344;2024-03-22T01:47:52;1.58;;;0.60;;
13477;SDS011;12598;62.382;17.344;2024-03-22T01:48:54;1.10;;;0.30;;
13477;SDS011;12598;62.382;17.344;2024-03-22T01:49:55;0.70;;;0.30;;
13477;SDS011;12598;62.382;17.344;2024-03-22T01:50:57;0.77;;;0.40;;
13477;SDS011;12598;62.382;17.344;2024-03-22T01:51:58;0.57;;;0.45;;
13477;SDS011;12598;62.382;17.344;2024-03-22T01:52:59;0.43;;;0.30;;
13477;SDS011;12598;62.382;17.344;2024-03-22T01:54:01;0.70;;;0.40;;
13477;SDS011;12598;62.382;17.344;2024-03-22T01:55:04;0.55;;;0.30;;
13477;SDS011;12598;62.382;17.344;2024-03-22T01:56:07;0.82;;;0.40;;
13477;SDS011;12598;62.382;17.344;2024-03-22T01:57:08;1.77;;;0.50;;
13477;SDS011;12598;62.382;17.344;2024-03-22T01:58:09;1.23;;;0.40;;
13477;SDS011;12598;62.382;17.344;2024-03-22T01:59:10;0.45;;;0.40;;
13477;SDS011;12598;62.382;17.344;2024-03-22T02:00:12;1.00;;;0.50;;
13477;SDS011;12598;62.382;17.344;2024-03-22T02:01:15;0.45;;;0.35;;
13477;SDS011;12598;62.382;17.344;2024-03-22T02:02:16;0.60;;;0.40;;
13477;SDS011;12598;62.382;17.344;2024-03-22T02:03:17;0.73;;;0.50;;
13477;SDS011;12598;62.382;17.344;2024-03-22T02:04:18;0.50;;;0.38;;
13477;SDS011;12598;62.382;17.344;2024-03-22T02:05:19;0.90;;;0.57;;
13477;SDS011;12598;62.382;17.344;2024-03-22T02:06:20;0.90;;;0.47;;
13477;SDS011;12598;62.382;17.344;2024-03-22T02:07:22;0.57;;;0.40;;
13477;SDS011;12598;62.382;17.344;2024-03-22T02:08:22;0.52;;;0.45;;
13477;SDS011;12598;62.382;17.344;2024-03-22T02:09:24;0.55;;;0.32;;
13477;SDS011;12598;62.382;17.344;2024-03-22T02:10:25;0.63;;;0.40;;
13477;SDS011;12598;62.382;17.344;2024-03-22T02:11:26;0.82;;;0.50;;
13477;SDS011;12598;62.382;17.344;2024-03-22T02:12:28;0.50;;;0.40;;
13477;SDS011;12598;62.382;17.344;2024-03-22T02:13:28;0.75;;;0.28;;
13477;SDS011;12598;62.382;17.344;2024-03-22T02:14:29;0.80;;;0.40;;
13477;SDS011;12598;62.382;17.344;2024-03-22T02:15:30;0.55;;;0.45;;
13477;SDS011;12598;62.382;17.344;2024-03-22T02:16:32;0.82;;;0.30;;
13477;SDS011;12598;62.382;17.344;2024-03-22T02:17:33;0.77;;;0.22;;
13477;SDS011;12598;62.382;17.344;2024-03-22T02:18:35;0.50;;;0.40;;
13477;SDS011;12598;62.382;17.344;2024-03-22T02:19:36;0.85;;;0.40;;
13477;SDS011;12598;62.382;17.344;2024-03-22T02:20:36;1.35;;;0.47;;
13477;SDS011;12598;62.382;17.344;2024-03-22T02:21:37;0.60;;;0.20;;
13477;SDS011;12598;62.382;17.344;2024-03-22T02:22:38;0.47;;;0.38;;
13477;SDS011;12598;62.382;17.344;2024-03-22T02:23:40;0.75;;;0.30;;
13477;SDS011;12598;62.382;17.344;2024-03-22T02:24:41;0.38;;;0.30;;
13477;SDS011;12598;62.382;17.344;2024-03-22T02:25:42;0.40;;;0.30;;
13477;SDS011;12598;62.382;17.344;2024-03-22T02:26:43;0.80;;;0.57;;
13477;SDS011;12598;62.382;17.344;2024-03-22T02:27:44;0.50;;;0.30;;
13477;SDS011;12598;62.382;17.344;2024-03-22T02:28:45;0.63;;;0.30;;
13477;SDS011;12598;62.382;17.344;2024-03-22T02:29:46;0.60;;;0.30;;
13477;SDS011;12598;62.382;17.344;2024-03-22T02:30:46;0.30;;;0.30;;
13477;SDS011;12598;62.382;17.344;2024-03-22T02:31:47;0.73;;;0.50;;
13477;SDS011;12598;62.382;17.344;2024-03-22T02:32:48;0.82;;;0.38;;
13477;SDS011;12598;62.382;17.344;2024-03-22T02:33:49;1.15;;;0.30;;
13477;SDS011;12598;62.382;17.344;2024-03-22T02:34:50;0.63;;;0.30;;
13477;SDS011;12598;62.382;17.344;2024-03-22T02:35:51;0.43;;;0.20;;
13477;SDS011;12598;62.382;17.344;2024-03-22T02:36:53;1.05;;;0.50;;
13477;SDS011;12598;62.382;17.344;2024-03-22T02:37:54;0.68;;;0.30;;
13477;SDS011;12598;62.382;17.344;2024-03-22T02:38:54;0.57;;;0.38;;
13477;SDS011;12598;62.382;17.344;2024-03-22T02:39:55;1.08;;;0.50;;
13477;SDS011;12598;62.382;17.344;2024-03-22T02:40:57;0.60;;;0.52;;
13477;SDS011;12598;62.382;17.344;2024-03-22T02:41:58;1.05;;;0.40;;
13477;SDS011;12598;62.382;17.344;2024-03-22T02:42:59;0.57;;;0.28;;
13477;SDS011;12598;62.382;17.344;2024-03-22T02:44:00;0.80;;;0.50;;
13477;SDS011;12598;62.382;17.344;2024-03-22T02:45:01;1.42;;;0.40;;
13477;SDS011;12598;62.382;17.344;2024-03-22T02:46:03;0.95;;;0.40;;
13477;SDS011;12598;62.382;17.344;2024-03-22T02:47:04;0.75;;;0.40;;
13477;SDS011;12598;62.382;17.344;2024-03-22T02:48:06;0.38;;;0.30;;
13477;SDS011;12598;62.382;17.344;2024-03-22T02:49:07;0.57;;;0.40;;
13477;SDS011;12598;62.382;17.344;2024-03-22T02:50:08;0.63;;;0.43;;
13477;SDS011;12598;62.382;17.344;2024-03-22T02:51:09;0.98;;;0.57;;
13477;SDS011;12598;62.382;17.344;2024-03-22T02:52:10;0.82;;;0.40;;
13477;SDS011;12598;62.382;17.344;2024-03-22T02:53:11;0.63;;;0.40;;
13477;SDS011;12598;62.382;17.344;2024-03-22T02:54:12;0.90;;;0.30;;
13477;SDS011;12598;62.382;17.344;2024-03-22T02:55:12;0.52;;;0.30;;
13477;SDS011;12598;62.382;17.344;2024-03-22T02:56:13;0.73;;;0.30;;
13477;SDS011;12598;62.382;17.344;2024-03-22T02:57:14;0.45;;;0.20;;
13477;SDS011;12598;62.382;17.344;2024-03-22T02:58:16;0.88;;;0.55;;
13477;SDS011;12598;62.382;17.344;2024-03-22T02:59:17;0.60;;;0.35;;
13477;SDS011;12598;62.382;17.344;2024-03-22T03:00:18;0.70;;;0.40;;
13477;SDS011;12598;62.382;17.344;2024-03-22T03:01:19;1.00;;;0.40;;
13477;SDS011;12598;62.382;17.344;2024-03-22T03:02:20;0.40;;;0.20;;
13477;SDS011;12598;62.382;17.344;2024-03-22T03:03:21;0.60;;;0.15;;
13477;SDS011;12598;62.382;17.344;2024-03-22T03:04:22;0.30;;;0.20;;
13477;SDS011;12598;62.382;17.344;2024-03-22T03:05:23;0.40;;;0.20;;
13477;SDS011;12598;62.382;17.344;2024-03-22T03:06:24;0.50;;;0.30;;
13477;SDS011;12598;62.382;17.344;2024-03-22T03:07:25;1.02;;;0.40;;
13477;SDS011;12598;62.382;17.344;2024-03-22T03:08:26;0.43;;;0.30;;
13477;SDS011;12598;62.382;17.344;2024-03-22T03:09:27;0.52;;;0.30;;
13477;SDS011;12598;62.382;17.344;2024-03-22T03:10:28;0.85;;;0.40;;
13477;SDS011;12598;62.382;17.344;2024-03-22T03:11:29;0.60;;;0.40;;
13477;SDS011;12598;62.382;17.344;2024-03-22T03:12:30;0.30;;;0.20;;
13477;SDS011;12598;62.382;17.344;2024-03-22T03:13:31;0.32;;;0.20;;
13477;SDS011;12598;62.382;17.344;2024-03-22T03:14:31;1.52;;;0.63;;
13477;SDS011;12598;62.382;17.344;2024-03-22T03:15:33;1.02;;;0.47;;
13477;SDS011;12598;62.382;17.344;2024-03-22T03:16:34;0.50;;;0.30;;
13477;SDS011;12598;62.382;17.344;2024-03-22T03:17:35;0.60;;;0.43;;
13477;SDS011;12598;62.382;17.344;2024-03-22T03:18:35;0.73;;;0.40;;
13477;SDS011;12598;62.382;17.344;2024-03-22T03:19:36;0.52;;;0.20;;
13477;SDS011;12598;62.382;17.344;2024-03-22T03:20:37;0.20;;;0.17;;
13477;SDS011;12598;62.382;17.344;2024-03-22T03:21:38;0.35;;;0.30;;
13477;SDS011;12598;62.382;17.344;2024-03-22T03:22:39;0.80;;;0.40;;
13477;SDS011;12598;62.382;17.344;2024-03-22T03:23:40;1.45;;;0.60;;
13477;SDS011;12598;62.382;17.344;2024-03-22T03:24:41;1.67;;;0.50;;
13477;SDS011;12598;62.382;17.344;2024-03-22T03:25:42;0.20;;;0.17;;
13477;SDS011;12598;62.382;17.344;2024-03-22T03:26:43;0.60;;;0.30;;
13477;SDS011;12598;62.382;17.344;2024-03-22T03:27:44;0.40;;;0.30;;
13477;SDS011;12598;62.382;17.344;2024-03-22T03:28:45;0.50;;;0.20;;
13477;SDS011;12598;62.382;17.344;2024-03-22T03:29:46;0.65;;;0.40;;
13477;SDS011;12598;62.382;17.344;2024-03-22T03:30:47;1.13;;;0.30;;
13477;SDS011;12598;62.382;17.344;2024-03-22T03:31:48;1.05;;;0.50;;
13477;SDS011;12598;62.382;17.344;2024-03-22T03:32:49;0.30;;;0.30;;
13477;SDS011;12598;62.382;17.344;2024-03-22T03:33:50;0.43;;;0.30;;
13477;SDS011;12598;62.382;17.344;2024-03-22T03:34:51;0.73;;;0.35;;
13477;SDS011;12598;62.382;17.344;2024-03-22T03:35:51;0.55;;;0.40;;
13477;SDS011;12598;62.382;17.344;2024-03-22T03:36:52;0.50;;;0.30;;
13477;SDS011;12598;62.382;17.344;2024-03-22T03:37:53;0.50;;;0.50;;
13477;SDS011;12598;62.382;17.344;2024-03-22T03:38:54;0.60;;;0.47;;
13477;SDS011;12598;62.382;17.344;2024-03-22T03:39:55;0.50;;;0.40;;
13477;SDS011;12598;62.382;17.344;2024-03-22T03:40:56;0.90;;;0.40;;
13477;SDS011;12598;62.382;17.344;2024-03-22T03:41:56;0.80;;;0.40;;
13477;SDS011;12598;62.382;17.344;2024-03-22T03:42:57;0.32;;;0.30;;
13477;SDS011;12598;62.382;17.344;2024-03-22T03:43:58;0.40;;;0.40;;
13477;SDS011;12598;62.382;17.344;2024-03-22T03:44:59;0.60;;;0.20;;
13477;SDS011;12598;62.382;17.344;2024-03-22T03:46:00;0.75;;;0.40;;
13477;SDS011;12598;62.382;17.344;2024-03-22T03:47:01;0.47;;;0.32;;
13477;SDS011;12598;62.382;17.344;2024-03-22T03:48:03;1.20;;;0.50;;
13477;SDS011;12598;62.382;17.344;2024-03-22T03:49:04;0.73;;;0.40;;
13477;SDS011;12598;62.382;17.344;2024-03-22T03:50:05;0.63;;;0.40;;
13477;SDS011;12598;62.382;17.344;2024-03-22T03:51:06;0.55;;;0.38;;
13477;SDS011;12598;62.382;17.344;2024-03-22T03:52:07;1.08;;;0.40;;
13477;SDS011;12598;62.382;17.344;2024-03-22T03:53:08;0.73;;;0.40;;
13477;SDS011;12598;62.382;17.344;2024-03-22T03:54:09;0.73;;;0.63;;
13477;SDS011;12598;62.382;17.344;2024-03-22T03:55:10;0.50;;;0.30;;
13477;SDS011;12598;62.382;17.344;2024-03-22T03:56:11;0.43;;;0.40;;
13477;SDS011;12598;62.382;17.344;2024-03-22T03:57:12;0.60;;;0.40;;
13477;SDS011;12598;62.382;17.344;2024-03-22T03:58:12;0.55;;;0.40;;
13477;SDS011;12598;62.382;17.344;2024-03-22T03:59:14;1.40;;;0.28;;
13477;SDS011;12598;62.382;17.344;2024-03-22T04:00:14;0.22;;;0.20;;
13477;SDS011;12598;62.382;17.344;2024-03-22T04:01:15;0.95;;;0.60;;
13477;SDS011;12598;62.382;17.344;2024-03-22T04:02:18;0.65;;;0.50;;
13477;SDS011;12598;62.382;17.344;2024-03-22T04:03:19;0.47;;;0.30;;
13477;SDS011;12598;62.382;17.344;2024-03-22T04:04:20;0.95;;;0.30;;
13477;SDS011;12598;62.382;17.344;2024-03-22T04:05:20;0.47;;;0.40;;
13477;SDS011;12598;62.382;17.344;2024-03-22T04:06:21;0.50;;;0.35;;
13477;SDS011;12598;62.382;17.344;2024-03-22T04:07:22;1.55;;;0.55;;
13477;SDS011;12598;62.382;17.344;2024-03-22T04:08:24;0.75;;;0.30;;
13477;SDS011;12598;62.382;17.344;2024-03-22T04:09:26;0.60;;;0.30;;
13477;SDS011;12598;62.382;17.344;2024-03-22T04:10:27;0.30;;;0.20;;
13477;SDS011;12598;62.382;17.344;2024-03-22T04:11:28;1.13;;;0.20;;
13477;SDS011;12598;62.382;17.344;2024-03-22T04:12:29;0.30;;;0.30;;
13477;SDS011;12598;62.382;17.344;2024-03-22T04:13:29;0.32;;;0.32;;
13477;SDS011;12598;62.382;17.344;2024-03-22T04:14:30;0.43;;;0.20;;
13477;SDS011;12598;62.382;17.344;2024-03-22T04:15:34;0.80;;;0.40;;
13477;SDS011;12598;62.382;17.344;2024-03-22T04:16:35;1.13;;;0.32;;
13477;SDS011;12598;62.382;17.344;2024-03-22T04:17:35;0.65;;;0.32;;
13477;SDS011;12598;62.382;17.344;2024-03-22T04:18:37;0.43;;;0.20;;
13477;SDS011;12598;62.382;17.344;2024-03-22T04:19:38;0.40;;;0.30;;
13477;SDS011;12598;62.382;17.344;2024-03-22T04:20:39;0.50;;;0.20;;
13477;SDS011;12598;62.382;17.344;2024-03-22T04:21:39;0.35;;;0.30;;
13477;SDS011;12598;62.382;17.344;2024-03-22T04:22:40;0.40;;;0.30;;
13477;SDS011;12598;62.382;17.344;2024-03-22T04:23:41;3.40;;;0.40;;
13477;SDS011;12598;62.382;17.344;2024-03-22T04:24:42;0.43;;;0.43;;
13477;SDS011;12598;62.382;17.344;2024-03-22T04:25:51;0.20;;;0.10;;
13477;SDS011;12598;62.382;17.344;2024-03-22T04:26:53;0.68;;;0.30;;
13477;SDS011;12598;62.382;17.344;2024-03-22T04:27:54;0.45;;;0.28;;
13477;SDS011;12598;62.382;17.344;2024-03-22T04:28:54;0.47;;;0.30;;
13477;SDS011;12598;62.382;17.344;2024-03-22T04:29:55;0.43;;;0.30;;
13477;SDS011;12598;62.382;17.344;2024-03-22T04:30:58;0.40;;;0.32;;
13477;SDS011;12598;62.382;17.344;2024-03-22T04:32:03;0.85;;;0.28;;
13477;SDS011;12598;62.382;17.344;2024-03-22T04:33:05;0.50;;;0.28;;
13477;SDS011;12598;62.382;17.344;2024-03-22T04:34:06;0.35;;;0.25;;
13477;SDS011;12598;62.382;17.344;2024-03-22T04:35:08;0.30;;;0.20;;
13477;SDS011;12598;62.382;17.344;2024-03-22T04:36:09;0.43;;;0.28;;
13477;SDS011;12598;62.382;17.344;2024-03-22T04:37:10;0.50;;;0.20;;
13477;SDS011;12598;62.382;17.344;2024-03-22T04:38:14;0.30;;;0.20;;
13477;SDS011;12598;62.382;17.344;2024-03-22T04:39:15;0.50;;;0.30;;
13477;SDS011;12598;62.382;17.344;2024-03-22T04:40:17;0.30;;;0.20;;
13477;SDS011;12598;62.382;17.344;2024-03-22T04:41:18;0.32;;;0.20;;
13477;SDS011;12598;62.382;17.344;2024-03-22T04:42:18;0.30;;;0.25;;
13477;SDS011;12598;62.382;17.344;2024-03-22T04:43:20;0.63;;;0.30;;
13477;SDS011;12598;62.382;17.344;2024-03-22T04:44:21;0.73;;;0.40;;
13477;SDS011;12598;62.382;17.344;2024-03-22T04:45:22;0.80;;;0.47;;
13477;SDS011;12598;62.382;17.344;2024-03-22T04:46:23;0.22;;;0.20;;
13477;SDS011;12598;62.382;17.344;2024-03-22T04:47:24;0.30;;;0.30;;
13477;SDS011;12598;62.382;17.344;2024-03-22T04:48:25;0.22;;;0.20;;
13477;SDS011;12598;62.382;17.344;2024-03-22T04:49:26;0.75;;;0.30;;
13477;SDS011;12598;62.382;17.344;2024-03-22T04:50:27;0.45;;;0.20;;
13477;SDS011;12598;62.382;17.344;2024-03-22T04:51:28;0.40;;;0.20;;
13477;SDS011;12598;62.382;17.344;2024-03-22T04:52:29;0.20;;;0.20;;
13477;SDS011;12598;62.382;17.344;2024-03-22T04:53:30;0.20;;;0.20;;
13477;SDS011;12598;62.382;17.344;2024-03-22T04:54:31;0.40;;;0.30;;
13477;SDS011;12598;62.382;17.344;2024-03-22T04:55:32;0.22;;;0.22;;
13477;SDS011;12598;62.382;17.344;2024-03-22T04:56:36;0.50;;;0.30;;
13477;SDS011;12598;62.382;17.344;2024-03-22T04:57:37;0.35;;;0.22;;
13477;SDS011;12598;62.382;17.344;2024-03-22T04:58:38;0.40;;;0.30;;
13477;SDS011;12598;62.382;17.344;2024-03-22T04:59:38;0.40;;;0.30;;
13477;SDS011;12598;62.382;17.344;2024-03-22T05:00:40;0.73;;;0.30;;
13477;SDS011;12598;62.382;17.344;2024-03-22T05:01:42;0.73;;;0.32;;
13477;SDS011;12598;62.382;17.344;2024-03-22T05:02:45;0.77;;;0.30;;
13477;SDS011;12598;62.382;17.344;2024-03-22T05:03:45;1.13;;;0.30;;
13477;SDS011;12598;62.382;17.344;2024-03-22T05:04:46;0.43;;;0.40;;
13477;SDS011;12598;62.382;17.344;2024-03-22T05:05:50;0.30;;;0.30;;
13477;SDS011;12598;62.382;17.344;2024-03-22T05:06:51;0.43;;;0.20;;
13477;SDS011;12598;62.382;17.344;2024-03-22T05:07:52;0.40;;;0.22;;
13477;SDS011;12598;62.382;17.344;2024-03-22T05:08:53;0.63;;;0.30;;
13477;SDS011;12598;62.382;17.344;2024-03-22T05:09:54;0.40;;;0.30;;
13477;SDS011;12598;62.382;17.344;2024-03-22T05:10:55;0.95;;;0.40;;
13477;SDS011;12598;62.382;17.344;2024-03-22T05:11:56;0.32;;;0.30;;
13477;SDS011;12598;62.382;17.344;2024-03-22T05:12:57;0.73;;;0.50;;
13477;SDS011;12598;62.382;17.344;2024-03-22T05:13:59;0.65;;;0.40;;
13477;SDS011;12598;62.382;17.344;2024-03-22T05:14:59;0.93;;;0.30;;
13477;SDS011;12598;62.382;17.344;2024-03-22T05:16:00;0.60;;;0.40;;
13477;SDS011;12598;62.382;17.344;2024-03-22T05:17:01;0.60;;;0.40;;
13477;SDS011;12598;62.382;17.344;2024-03-22T05:18:01;0.60;;;0.40;;
13477;SDS011;12598;62.382;17.344;2024-03-22T05:19:03;0.52;;;0.50;;
13477;SDS011;12598;62.382;17.344;2024-03-22T05:20:03;0.68;;;0.40;;
13477;SDS011;12598;62.382;17.344;2024-03-22T05:21:06;0.65;;;0.40;;
13477;SDS011;12598;62.382;17.344;2024-03-22T05:22:07;0.43;;;0.40;;
13477;SDS011;12598;62.382;17.344;2024-03-22T05:23:07;0.40;;;0.38;;
13477;SDS011;12598;62.382;17.344;2024-03-22T05:24:08;0.60;;;0.30;;
13477;SDS011;12598;62.382;17.344;2024-03-22T05:25:09;0.98;;;0.50;;
13477;SDS011;12598;62.382;17.344;2024-03-22T05:26:10;1.42;;;0.57;;
13477;SDS011;12598;62.382;17.344;2024-03-22T05:27:11;0.77;;;0.47;;
13477;SDS011;12598;62.382;17.344;2024-03-22T05:28:13;1.33;;;0.43;;
13477;SDS011;12598;62.382;17.344;2024-03-22T05:29:14;0.50;;;0.40;;
13477;SDS011;12598;62.382;17.344;2024-03-22T05:30:15;1.08;;;0.63;;
13477;SDS011;12598;62.382;17.344;2024-03-22T05:31:16;0.50;;;0.50;;
13477;SDS011;12598;62.382;17.344;2024-03-22T05:32:17;1.92;;;0.63;;
13477;SDS011;12598;62.382;17.344;2024-03-22T05:33:17;0.65;;;0.50;;
13477;SDS011;12598;62.382;17.344;2024-03-22T05:34:18;0.60;;;0.38;;
13477;SDS011;12598;62.382;17.344;2024-03-22T05:35:19;0.65;;;0.60;;
13477;SDS011;12598;62.382;17.344;2024-03-22T05:36:20;0.73;;;0.40;;
13477;SDS011;12598;62.382;17.344;2024-03-22T05:37:21;0.60;;;0.60;;
13477;SDS011;12598;62.382;17.344;2024-03-22T05:38:22;0.95;;;0.57;;
13477;SDS011;12598;62.382;17.344;2024-03-22T05:39:23;1.02;;;0.80;;
13477;SDS011;12598;62.382;17.344;2024-03-22T05:40:23;0.93;;;0.63;;
13477;SDS011;12598;62.382;17.344;2024-03-22T05:41:24;0.80;;;0.70;;
13477;SDS011;12598;62.382;17.344;2024-03-22T05:42:25;1.00;;;0.88;;
13477;SDS011;12598;62.382;17.344;2024-03-22T05:43:27;0.68;;;0.50;;
13477;SDS011;12598;62.382;17.344;2024-03-22T05:44:28;0.60;;;0.52;;
13477;SDS011;12598;62.382;17.344;2024-03-22T05:45:28;1.02;;;0.80;;
13477;SDS011;12598;62.382;17.344;2024-03-22T05:46:29;1.00;;;0.90;;
13477;SDS011;12598;62.382;17.344;2024-03-22T05:47:30;1.20;;;0.80;;
13477;SDS011;12598;62.382;17.344;2024-03-22T05:48:31;1.70;;;0.77;;
13477;SDS011;12598;62.382;17.344;2024-03-22T05:49:32;1.80;;;0.93;;
13477;SDS011;12598;62.382;17.344;2024-03-22T05:50:33;1.80;;;0.80;;
13477;SDS011;12598;62.382;17.344;2024-03-22T05:51:34;1.48;;;1.00;;
13477;SDS011;12598;62.382;17.344;2024-03-22T05:52:35;1.13;;;0.90;;
13477;SDS011;12598;62.382;17.344;2024-03-22T05:53:36;0.75;;;0.60;;
13477;SDS011;12598;62.382;17.344;2024-03-22T05:54:37;0.85;;;0.70;;
13477;SDS011;12598;62.382;17.344;2024-03-22T05:55:38;1.08;;;0.70;;
13477;SDS011;12598;62.382;17.344;2024-03-22T05:56:39;0.93;;;0.50;;
13477;SDS011;12598;62.382;17.344;2024-03-22T05:57:40;1.67;;;0.75;;
13477;SDS011;12598;62.382;17.344;2024-03-22T05:58:41;1.25;;;0.73;;
13477;SDS011;12598;62.382;17.344;2024-03-22T05:59:42;0.70;;;0.70;;
13477;SDS011;12598;62.382;17.344;2024-03-22T06:00:43;1.00;;;0.50;;
13477;SDS011;12598;62.382;17.344;2024-03-22T06:01:43;1.02;;;0.60;;